Strona główna
METAR-TAF:

METAR-TAF

Lotnisko :

Hanamaki, Japonia

Port lotniczy Hanamaki

Szerokość geograficzna: 39-26N, Długość geograficzna: 141-08E, wysokość: 90 m

Aktualna obserwacja pogody

Raport powstał 9 godziny i 55 minut temu, godzina 10:00 UTC
Wiatr 2 kt z kierunków zmiennych
Temperatura -5°C
Wilgotność 68%
Ciśnienie 1019 hPa
Widzialność 10 km lub więcej
Mało chmury na wysokości 2000 ft
Rozproszone chmury na wysokości 4000 ft

METAR: RJSI 181000Z VRB02KT 9999 FEW020 SCT040 M05/M10 Q1019

czas: 04:55 (19:55 UTC)


TAF: brakujący

Obserwacja i prognoza pogody dla ponad 4000 lotnisk (raport METAR i TAF).

Dostępne stacje oznaczono żółtymi i czerwonymi punktami na mapie.

Najedź kursorem aby zobaczyć nazwę stacji.

Kliknij aby zobaczyć obserwacje i prognozy pogody.

Aby zmienić mapę: kliknij na zielony przycisk z czarnym krzyżykiem, aby powiększyć; na zielony przycisk z myślnikiem, aby pomniejszyć; na zielone strzałki, aby przejść do map sąsiednich.


METAR-TAF: